createdAt,value
2023-05-12T00:00:35.270Z,7.50
2023-05-12T00:10:56.779Z,8.25
2023-05-12T00:21:18.514Z,7.23
2023-05-12T00:31:39.980Z,6.63
2023-05-12T00:42:01.918Z,5.97
2023-05-12T00:52:23.863Z,5.83
2023-05-12T01:02:46.000Z,6.40
2023-05-12T01:13:08.028Z,6.23
2023-05-12T01:23:35.747Z,7.70
2023-05-12T01:33:57.504Z,7.03
2023-05-12T01:44:20.531Z,8.53
2023-05-12T01:54:42.427Z,7.97
2023-05-12T02:05:05.308Z,8.80
2023-05-12T02:15:27.356Z,8.67
2023-05-12T02:25:50.493Z,9.67
2023-05-12T02:36:12.341Z,11.43
2023-05-12T02:46:34.325Z,11.35
2023-05-12T02:56:58.137Z,8.47
2023-05-12T03:07:19.997Z,10.00
2023-05-12T03:17:41.678Z,7.47
2023-05-12T03:28:03.810Z,6.23
2023-05-12T03:38:25.540Z,5.35
2023-05-12T03:48:47.339Z,5.53
2023-05-12T03:59:09.071Z,5.50
2023-05-12T04:09:33.069Z,4.53
2023-05-12T04:19:54.908Z,4.73
2023-05-12T04:30:17.556Z,4.43
2023-05-12T04:40:39.927Z,3.97
2023-05-12T04:51:01.871Z,3.73
2023-05-12T05:01:23.816Z,2.90
2023-05-12T05:11:45.369Z,3.90
2023-05-12T05:22:07.504Z,2.90
2023-05-12T05:32:29.107Z,2.13
2023-05-12T05:42:50.375Z,2.67
2023-05-12T05:53:12.228Z,2.07
2023-05-12T06:03:34.242Z,2.50
2023-05-12T06:13:55.837Z,2.22
2023-05-12T06:24:17.410Z,2.33
2023-05-12T06:34:38.961Z,1.97
2023-05-12T06:45:01.617Z,2.17
2023-05-12T06:55:24.151Z,1.73
2023-05-12T07:05:46.316Z,2.08
2023-05-12T07:16:07.973Z,1.60
2023-05-12T07:26:29.850Z,1.60
2023-05-12T07:36:51.626Z,1.60
2023-05-12T07:47:13.027Z,1.37
2023-05-12T07:57:34.732Z,1.90
2023-05-12T08:07:56.234Z,1.47
2023-05-12T08:18:17.898Z,1.30
2023-05-12T08:28:39.918Z,1.70
2023-05-12T08:39:02.675Z,1.63
2023-05-12T08:49:25.710Z,2.38
2023-05-12T08:59:47.955Z,2.00
2023-05-12T09:10:29.814Z,1.93
2023-05-12T09:20:55.016Z,1.87
2023-05-12T09:31:22.359Z,1.60
2023-05-12T09:41:44.187Z,1.60
2023-05-12T09:52:05.911Z,1.83
2023-05-12T10:02:28.608Z,1.47
2023-05-12T10:12:41.465Z,1.40
2023-05-12T10:23:03.556Z,1.37
2023-05-12T10:33:25.535Z,1.52
2023-05-12T10:43:49.622Z,1.53
2023-05-12T10:54:18.356Z,1.57
2023-05-12T11:04:55.659Z,1.73
2023-05-12T11:15:18.209Z,1.87
2023-05-12T11:25:41.573Z,1.55
2023-05-12T11:36:06.053Z,1.47
2023-05-12T11:46:30.929Z,1.53
2023-05-12T11:56:54.298Z,1.77
2023-05-12T12:07:15.966Z,1.90
2023-05-12T12:17:38.109Z,1.58
2023-05-12T12:27:59.673Z,1.37
2023-05-12T12:38:21.606Z,1.40
2023-05-12T12:48:43.670Z,1.77
2023-05-12T12:59:05.416Z,1.60
2023-05-12T13:09:26.928Z,1.75
2023-05-12T13:19:48.452Z,1.90
2023-05-12T13:30:13.380Z,1.40
2023-05-12T13:40:35.442Z,1.90
2023-05-12T13:50:57.622Z,1.77
2023-05-12T14:01:19.246Z,1.48
2023-05-12T14:11:41.079Z,1.73
2023-05-12T14:22:05.899Z,1.63
2023-05-12T14:32:31.421Z,1.43
2023-05-12T14:42:52.903Z,1.70
2023-05-12T14:53:14.408Z,1.83
2023-05-12T15:03:36.019Z,1.60
2023-05-12T15:13:57.526Z,1.67
2023-05-12T15:24:19.175Z,1.60
2023-05-12T15:34:40.787Z,1.57
2023-05-12T15:45:02.546Z,1.35
2023-05-12T15:55:24.315Z,1.50
2023-05-12T16:05:45.513Z,1.20
2023-05-12T16:16:08.165Z,1.20
2023-05-12T16:26:30.338Z,1.47
2023-05-12T16:36:52.110Z,1.55
2023-05-12T16:47:13.684Z,1.90
2023-05-12T16:57:35.304Z,1.47
2023-05-12T17:07:57.173Z,2.03
2023-05-12T17:18:18.688Z,1.70
2023-05-12T17:28:40.501Z,1.90
2023-05-12T17:39:02.390Z,1.43
2023-05-12T17:49:24.635Z,1.90
2023-05-12T17:59:46.493Z,2.40
2023-05-12T18:10:09.729Z,3.10
2023-05-12T18:20:31.505Z,3.13
2023-05-12T18:30:54.552Z,5.57
2023-05-12T18:41:17.704Z,4.90
2023-05-12T18:51:38.955Z,7.27
2023-05-12T19:02:01.017Z,5.17
2023-05-12T19:12:22.485Z,2.05
2023-05-12T19:22:44.850Z,1.90
2023-05-12T19:33:06.700Z,2.47
2023-05-12T19:43:28.258Z,2.43
2023-05-12T19:53:49.594Z,2.30
2023-05-12T20:04:11.278Z,2.45
2023-05-12T20:14:33.773Z,2.43
2023-05-12T20:24:55.464Z,2.83
2023-05-12T20:35:17.204Z,2.60
2023-05-12T20:45:38.958Z,1.77
2023-05-12T20:56:00.488Z,2.50
2023-05-12T21:06:22.094Z,1.77
2023-05-12T21:16:43.339Z,2.27
2023-05-12T21:27:06.474Z,2.70
2023-05-12T21:37:28.065Z,2.10
2023-05-12T21:47:51.329Z,2.30
2023-05-12T21:58:13.339Z,2.27
2023-05-12T22:08:37.972Z,2.60
2023-05-12T22:18:59.729Z,2.50
2023-05-12T22:29:21.888Z,2.53
2023-05-12T22:39:43.657Z,2.55
2023-05-12T22:50:05.701Z,2.70
2023-05-12T23:00:28.079Z,2.70
2023-05-12T23:10:49.364Z,3.03
2023-05-12T23:21:10.813Z,2.80
2023-05-12T23:31:32.351Z,3.50
2023-05-12T23:41:53.940Z,3.30
2023-05-12T23:52:15.733Z,2.73
